sensor_id;sensor_type;location;lat;lon;timestamp;P1;durP1;ratioP1;P2;durP2;ratioP2
13240;SDS011;6687;47.790;7.322;2023-03-19T06:11:42;1.02;;;1.02;;
13240;SDS011;6687;47.790;7.322;2023-03-19T06:14:09;0.90;;;0.90;;
13240;SDS011;6687;47.790;7.322;2023-03-19T06:16:36;1.88;;;1.30;;
13240;SDS011;6687;47.790;7.322;2023-03-19T06:19:03;0.60;;;0.60;;
13240;SDS011;6687;47.790;7.322;2023-03-19T06:21:29;1.35;;;0.52;;
13240;SDS011;6687;47.790;7.322;2023-03-19T06:23:56;1.60;;;0.60;;
13240;SDS011;6687;47.790;7.322;2023-03-19T06:26:23;0.93;;;0.85;;
13240;SDS011;6687;47.790;7.322;2023-03-19T06:28:52;1.35;;;1.10;;
13240;SDS011;6687;47.790;7.322;2023-03-19T06:31:19;1.08;;;1.08;;
13240;SDS011;6687;47.790;7.322;2023-03-19T06:33:46;1.13;;;1.02;;
13240;SDS011;6687;47.790;7.322;2023-03-19T06:36:13;1.42;;;1.15;;
13240;SDS011;6687;47.790;7.322;2023-03-19T06:38:39;0.70;;;0.70;;
13240;SDS011;6687;47.790;7.322;2023-03-19T06:41:06;0.77;;;0.77;;
13240;SDS011;6687;47.790;7.322;2023-03-19T06:43:33;0.93;;;0.90;;
13240;SDS011;6687;47.790;7.322;2023-03-19T06:46:03;0.70;;;0.70;;
13240;SDS011;6687;47.790;7.322;2023-03-19T06:48:30;1.13;;;0.98;;
13240;SDS011;6687;47.790;7.322;2023-03-19T06:50:57;1.05;;;0.95;;
13240;SDS011;6687;47.790;7.322;2023-03-19T06:53:24;0.85;;;0.85;;
13240;SDS011;6687;47.790;7.322;2023-03-19T06:55:51;0.80;;;0.80;;
13240;SDS011;6687;47.790;7.322;2023-03-19T06:58:18;1.13;;;1.05;;
13240;SDS011;6687;47.790;7.322;2023-03-19T07:00:45;0.75;;;0.75;;
13240;SDS011;6687;47.790;7.322;2023-03-19T07:03:14;0.63;;;0.50;;
13240;SDS011;6687;47.790;7.322;2023-03-19T07:05:40;0.50;;;0.50;;
13240;SDS011;6687;47.790;7.322;2023-03-19T07:08:07;0.60;;;0.60;;
13240;SDS011;6687;47.790;7.322;2023-03-19T07:10:36;1.30;;;1.00;;
13240;SDS011;6687;47.790;7.322;2023-03-19T07:13:03;0.70;;;0.70;;
13240;SDS011;6687;47.790;7.322;2023-03-19T07:15:30;0.32;;;0.32;;
13240;SDS011;6687;47.790;7.322;2023-03-19T07:17:56;0.50;;;0.50;;
13240;SDS011;6687;47.790;7.322;2023-03-19T07:20:24;0.65;;;0.65;;
13240;SDS011;6687;47.790;7.322;2023-03-19T07:22:51;0.98;;;0.90;;
13240;SDS011;6687;47.790;7.322;2023-03-19T07:25:18;0.60;;;0.60;;
13240;SDS011;6687;47.790;7.322;2023-03-19T07:27:45;0.73;;;0.73;;
13240;SDS011;6687;47.790;7.322;2023-03-19T07:30:13;0.50;;;0.50;;
13240;SDS011;6687;47.790;7.322;2023-03-19T07:32:40;0.68;;;0.68;;
13240;SDS011;6687;47.790;7.322;2023-03-19T07:35:08;0.70;;;0.70;;
13240;SDS011;6687;47.790;7.322;2023-03-19T07:37:36;0.82;;;0.57;;
13240;SDS011;6687;47.790;7.322;2023-03-19T07:40:04;0.65;;;0.65;;
13240;SDS011;6687;47.790;7.322;2023-03-19T07:42:31;0.95;;;0.95;;
13240;SDS011;6687;47.790;7.322;2023-03-19T07:44:58;0.82;;;0.82;;
13240;SDS011;6687;47.790;7.322;2023-03-19T07:47:26;1.55;;;0.90;;
13240;SDS011;6687;47.790;7.322;2023-03-19T07:49:53;0.75;;;0.75;;
13240;SDS011;6687;47.790;7.322;2023-03-19T07:52:19;2.08;;;0.95;;
13240;SDS011;6687;47.790;7.322;2023-03-19T07:54:48;1.02;;;0.93;;
13240;SDS011;6687;47.790;7.322;2023-03-19T07:57:15;0.55;;;0.55;;
13240;SDS011;6687;47.790;7.322;2023-03-19T07:59:42;1.25;;;1.15;;
13240;SDS011;6687;47.790;7.322;2023-03-19T08:02:09;1.27;;;1.15;;
13240;SDS011;6687;47.790;7.322;2023-03-19T08:04:36;0.80;;;0.80;;
13240;SDS011;6687;47.790;7.322;2023-03-19T08:07:03;0.80;;;0.80;;
13240;SDS011;6687;47.790;7.322;2023-03-19T08:09:30;1.20;;;0.80;;
13240;SDS011;6687;47.790;7.322;2023-03-19T08:11:59;0.75;;;0.70;;
13240;SDS011;6687;47.790;7.322;2023-03-19T08:14:26;1.05;;;0.95;;
13240;SDS011;6687;47.790;7.322;2023-03-19T08:16:52;0.47;;;0.47;;
13240;SDS011;6687;47.790;7.322;2023-03-19T08:19:19;0.80;;;0.80;;
13240;SDS011;6687;47.790;7.322;2023-03-19T08:21:46;0.90;;;0.90;;
13240;SDS011;6687;47.790;7.322;2023-03-19T08:24:13;0.93;;;0.93;;
13240;SDS011;6687;47.790;7.322;2023-03-19T08:26:40;0.93;;;0.90;;
13240;SDS011;6687;47.790;7.322;2023-03-19T08:29:08;0.95;;;0.90;;
13240;SDS011;6687;47.790;7.322;2023-03-19T08:31:35;1.15;;;0.85;;
13240;SDS011;6687;47.790;7.322;2023-03-19T08:34:01;0.95;;;0.90;;
13240;SDS011;6687;47.790;7.322;2023-03-19T08:36:29;0.98;;;0.90;;
13240;SDS011;6687;47.790;7.322;2023-03-19T08:38:56;0.82;;;0.82;;
13240;SDS011;6687;47.790;7.322;2023-03-19T08:41:23;1.08;;;0.82;;
13240;SDS011;6687;47.790;7.322;2023-03-19T08:43:50;1.00;;;0.90;;
13240;SDS011;6687;47.790;7.322;2023-03-19T08:46:18;0.75;;;0.75;;
13240;SDS011;6687;47.790;7.322;2023-03-19T08:48:45;0.80;;;0.80;;
13240;SDS011;6687;47.790;7.322;2023-03-19T08:51:12;0.80;;;0.80;;
13240;SDS011;6687;47.790;7.322;2023-03-19T08:53:38;0.77;;;0.65;;
13240;SDS011;6687;47.790;7.322;2023-03-19T08:56:05;0.60;;;0.60;;
13240;SDS011;6687;47.790;7.322;2023-03-19T08:58:33;0.60;;;0.60;;
13240;SDS011;6687;47.790;7.322;2023-03-19T09:01:00;0.77;;;0.60;;
13240;SDS011;6687;47.790;7.322;2023-03-19T09:03:29;1.95;;;1.02;;
13240;SDS011;6687;47.790;7.322;2023-03-19T09:05:57;1.05;;;1.05;;
13240;SDS011;6687;47.790;7.322;2023-03-19T09:08:24;0.77;;;0.68;;
13240;SDS011;6687;47.790;7.322;2023-03-19T09:10:52;0.70;;;0.70;;
13240;SDS011;6687;47.790;7.322;2023-03-19T09:13:19;0.50;;;0.50;;
13240;SDS011;6687;47.790;7.322;2023-03-19T09:15:45;0.45;;;0.45;;
13240;SDS011;6687;47.790;7.322;2023-03-19T09:18:12;0.90;;;0.77;;
13240;SDS011;6687;47.790;7.322;2023-03-19T09:20:40;0.40;;;0.40;;
13240;SDS011;6687;47.790;7.322;2023-03-19T09:23:08;0.65;;;0.40;;
13240;SDS011;6687;47.790;7.322;2023-03-19T09:25:35;0.40;;;0.40;;
13240;SDS011;6687;47.790;7.322;2023-03-19T09:28:01;0.82;;;0.82;;
13240;SDS011;6687;47.790;7.322;2023-03-19T09:30:28;0.47;;;0.43;;
13240;SDS011;6687;47.790;7.322;2023-03-19T09:32:55;0.43;;;0.43;;
13240;SDS011;6687;47.790;7.322;2023-03-19T09:35:22;0.45;;;0.45;;
13240;SDS011;6687;47.790;7.322;2023-03-19T09:37:50;0.43;;;0.43;;
13240;SDS011;6687;47.790;7.322;2023-03-19T09:40:19;0.52;;;0.52;;
13240;SDS011;6687;47.790;7.322;2023-03-19T09:42:52;0.38;;;0.38;;
13240;SDS011;6687;47.790;7.322;2023-03-19T09:45:26;0.55;;;0.40;;
13240;SDS011;6687;47.790;7.322;2023-03-19T09:47:54;0.85;;;0.55;;
13240;SDS011;6687;47.790;7.322;2023-03-19T09:50:23;0.52;;;0.40;;
13240;SDS011;6687;47.790;7.322;2023-03-19T09:52:54;0.43;;;0.43;;
13240;SDS011;6687;47.790;7.322;2023-03-19T09:55:33;0.55;;;0.55;;
13240;SDS011;6687;47.790;7.322;2023-03-19T09:58:07;0.20;;;0.20;;
13240;SDS011;6687;47.790;7.322;2023-03-19T10:00:39;0.30;;;0.30;;
13240;SDS011;6687;47.790;7.322;2023-03-19T10:03:11;0.80;;;0.65;;
13240;SDS011;6687;47.790;7.322;2023-03-19T10:05:52;0.55;;;0.40;;
13240;SDS011;6687;47.790;7.322;2023-03-19T10:08:39;1.90;;;0.60;;
13240;SDS011;6687;47.790;7.322;2023-03-19T10:11:29;0.15;;;0.15;;
13240;SDS011;6687;47.790;7.322;2023-03-19T10:14:07;0.50;;;0.50;;
13240;SDS011;6687;47.790;7.322;2023-03-19T10:16:46;0.45;;;0.45;;
13240;SDS011;6687;47.790;7.322;2023-03-19T10:19:17;1.15;;;0.43;;
13240;SDS011;6687;47.790;7.322;2023-03-19T10:21:48;0.68;;;0.60;;
13240;SDS011;6687;47.790;7.322;2023-03-19T10:24:23;0.28;;;0.28;;
13240;SDS011;6687;47.790;7.322;2023-03-19T10:26:54;0.50;;;0.50;;
13240;SDS011;6687;47.790;7.322;2023-03-19T10:29:24;0.20;;;0.20;;
13240;SDS011;6687;47.790;7.322;2023-03-19T10:31:54;0.30;;;0.30;;
13240;SDS011;6687;47.790;7.322;2023-03-19T10:34:29;0.77;;;0.60;;
13240;SDS011;6687;47.790;7.322;2023-03-19T10:36:58;0.65;;;0.45;;
13240;SDS011;6687;47.790;7.322;2023-03-19T10:39:29;0.70;;;0.30;;
13240;SDS011;6687;47.790;7.322;2023-03-19T10:42:00;0.43;;;0.43;;
13240;SDS011;6687;47.790;7.322;2023-03-19T10:44:46;0.40;;;0.40;;
13240;SDS011;6687;47.790;7.322;2023-03-19T10:47:16;0.80;;;0.50;;
13240;SDS011;6687;47.790;7.322;2023-03-19T10:49:44;0.80;;;0.80;;
13240;SDS011;6687;47.790;7.322;2023-03-19T10:52:16;0.40;;;0.40;;
13240;SDS011;6687;47.790;7.322;2023-03-19T10:54:48;0.35;;;0.35;;
13240;SDS011;6687;47.790;7.322;2023-03-19T10:57:21;0.32;;;0.32;;
13240;SDS011;6687;47.790;7.322;2023-03-19T10:59:50;0.45;;;0.45;;
13240;SDS011;6687;47.790;7.322;2023-03-19T11:02:18;0.65;;;0.60;;
13240;SDS011;6687;47.790;7.322;2023-03-19T11:04:47;0.40;;;0.40;;
13240;SDS011;6687;47.790;7.322;2023-03-19T11:07:16;0.38;;;0.38;;
13240;SDS011;6687;47.790;7.322;2023-03-19T11:09:46;1.70;;;0.60;;
13240;SDS011;6687;47.790;7.322;2023-03-19T11:12:16;1.67;;;0.80;;
13240;SDS011;6687;47.790;7.322;2023-03-19T11:14:45;0.38;;;0.38;;
13240;SDS011;6687;47.790;7.322;2023-03-19T11:17:16;0.52;;;0.52;;
13240;SDS011;6687;47.790;7.322;2023-03-19T11:19:48;1.10;;;0.90;;
13240;SDS011;6687;47.790;7.322;2023-03-19T11:22:20;2.05;;;0.50;;
13240;SDS011;6687;47.790;7.322;2023-03-19T11:24:51;0.40;;;0.40;;
13240;SDS011;6687;47.790;7.322;2023-03-19T11:27:25;0.50;;;0.50;;
13240;SDS011;6687;47.790;7.322;2023-03-19T11:29:53;1.23;;;0.60;;
13240;SDS011;6687;47.790;7.322;2023-03-19T11:32:24;2.05;;;0.50;;
13240;SDS011;6687;47.790;7.322;2023-03-19T11:35:06;0.85;;;0.40;;
13240;SDS011;6687;47.790;7.322;2023-03-19T11:37:42;0.50;;;0.50;;
13240;SDS011;6687;47.790;7.322;2023-03-19T11:40:21;0.85;;;0.50;;
13240;SDS011;6687;47.790;7.322;2023-03-19T11:43:04;0.35;;;0.20;;
13240;SDS011;6687;47.790;7.322;2023-03-19T11:45:39;0.50;;;0.50;;
13240;SDS011;6687;47.790;7.322;2023-03-19T11:48:19;0.38;;;0.38;;
13240;SDS011;6687;47.790;7.322;2023-03-19T11:51:00;0.22;;;0.22;;
13240;SDS011;6687;47.790;7.322;2023-03-19T11:53:33;0.40;;;0.40;;
13240;SDS011;6687;47.790;7.322;2023-03-19T11:56:10;0.47;;;0.47;;
13240;SDS011;6687;47.790;7.322;2023-03-19T11:58:51;0.15;;;0.13;;
13240;SDS011;6687;47.790;7.322;2023-03-19T12:04:46;0.43;;;0.20;;
13240;SDS011;6687;47.790;7.322;2023-03-19T12:07:30;0.40;;;0.40;;
13240;SDS011;6687;47.790;7.322;2023-03-19T12:10:06;0.30;;;0.30;;
13240;SDS011;6687;47.790;7.322;2023-03-19T12:12:54;0.50;;;0.50;;
13240;SDS011;6687;47.790;7.322;2023-03-19T12:15:32;0.40;;;0.40;;
13240;SDS011;6687;47.790;7.322;2023-03-19T12:18:07;0.30;;;0.30;;
13240;SDS011;6687;47.790;7.322;2023-03-19T12:20:47;0.30;;;0.30;;
13240;SDS011;6687;47.790;7.322;2023-03-19T12:23:26;0.20;;;0.20;;
13240;SDS011;6687;47.790;7.322;2023-03-19T12:26:01;1.38;;;0.85;;
13240;SDS011;6687;47.790;7.322;2023-03-19T12:28:32;0.52;;;0.52;;
13240;SDS011;6687;47.790;7.322;2023-03-19T12:33:55;0.70;;;0.70;;
13240;SDS011;6687;47.790;7.322;2023-03-19T12:36:34;0.45;;;0.40;;
13240;SDS011;6687;47.790;7.322;2023-03-19T12:39:05;1.08;;;0.40;;
13240;SDS011;6687;47.790;7.322;2023-03-19T12:41:39;0.40;;;0.40;;
13240;SDS011;6687;47.790;7.322;2023-03-19T12:44:10;0.20;;;0.20;;
13240;SDS011;6687;47.790;7.322;2023-03-19T12:46:45;0.60;;;0.60;;
13240;SDS011;6687;47.790;7.322;2023-03-19T12:49:18;0.30;;;0.30;;
13240;SDS011;6687;47.790;7.322;2023-03-19T12:51:51;0.40;;;0.40;;
13240;SDS011;6687;47.790;7.322;2023-03-19T12:54:22;1.23;;;0.70;;
13240;SDS011;6687;47.790;7.322;2023-03-19T12:56:54;0.40;;;0.40;;
13240;SDS011;6687;47.790;7.322;2023-03-19T12:59:28;0.50;;;0.50;;
13240;SDS011;6687;47.790;7.322;2023-03-19T13:02:02;2.08;;;0.75;;
13240;SDS011;6687;47.790;7.322;2023-03-19T13:04:37;0.20;;;0.20;;
13240;SDS011;6687;47.790;7.322;2023-03-19T13:07:18;0.30;;;0.30;;
13240;SDS011;6687;47.790;7.322;2023-03-19T13:09:48;0.50;;;0.35;;
13240;SDS011;6687;47.790;7.322;2023-03-19T13:12:19;0.43;;;0.43;;
13240;SDS011;6687;47.790;7.322;2023-03-19T13:14:53;0.52;;;0.43;;
13240;SDS011;6687;47.790;7.322;2023-03-19T13:17:27;0.40;;;0.40;;
13240;SDS011;6687;47.790;7.322;2023-03-19T13:20:03;0.47;;;0.47;;
13240;SDS011;6687;47.790;7.322;2023-03-19T13:22:48;0.30;;;0.30;;
13240;SDS011;6687;47.790;7.322;2023-03-19T13:25:19;0.20;;;0.20;;
13240;SDS011;6687;47.790;7.322;2023-03-19T13:27:51;1.48;;;0.30;;
13240;SDS011;6687;47.790;7.322;2023-03-19T13:30:21;0.28;;;0.28;;
13240;SDS011;6687;47.790;7.322;2023-03-19T13:32:48;0.00;;;0.00;;
13240;SDS011;6687;47.790;7.322;2023-03-19T13:38:07;0.20;;;0.20;;
13240;SDS011;6687;47.790;7.322;2023-03-19T13:40:46;0.10;;;0.10;;
13240;SDS011;6687;47.790;7.322;2023-03-19T13:43:22;0.40;;;0.40;;
13240;SDS011;6687;47.790;7.322;2023-03-19T13:46:25;0.20;;;0.20;;
13240;SDS011;6687;47.790;7.322;2023-03-19T13:49:01;0.30;;;0.22;;
13240;SDS011;6687;47.790;7.322;2023-03-19T13:51:35;0.70;;;0.25;;
13240;SDS011;6687;47.790;7.322;2023-03-19T13:54:05;0.30;;;0.30;;
13240;SDS011;6687;47.790;7.322;2023-03-19T13:56:54;0.35;;;0.30;;
13240;SDS011;6687;47.790;7.322;2023-03-19T13:59:29;0.10;;;0.10;;
13240;SDS011;6687;47.790;7.322;2023-03-19T14:01:58;0.20;;;0.20;;
13240;SDS011;6687;47.790;7.322;2023-03-19T14:04:26;0.10;;;0.10;;
13240;SDS011;6687;47.790;7.322;2023-03-19T14:06:55;0.10;;;0.10;;
13240;SDS011;6687;47.790;7.322;2023-03-19T14:09:27;0.10;;;0.10;;
13240;SDS011;6687;47.790;7.322;2023-03-19T14:12:07;0.10;;;0.10;;
13240;SDS011;6687;47.790;7.322;2023-03-19T14:14:38;0.20;;;0.20;;
13240;SDS011;6687;47.790;7.322;2023-03-19T14:17:12;0.10;;;0.10;;
13240;SDS011;6687;47.790;7.322;2023-03-19T14:19:40;0.20;;;0.20;;
13240;SDS011;6687;47.790;7.322;2023-03-19T14:22:09;0.10;;;0.10;;
13240;SDS011;6687;47.790;7.322;2023-03-19T14:24:53;0.30;;;0.30;;
13240;SDS011;6687;47.790;7.322;2023-03-19T14:27:21;0.10;;;0.10;;
13240;SDS011;6687;47.790;7.322;2023-03-19T14:32:45;0.25;;;0.25;;
13240;SDS011;6687;47.790;7.322;2023-03-19T14:35:15;0.30;;;0.30;;
13240;SDS011;6687;47.790;7.322;2023-03-19T14:37:45;0.30;;;0.25;;
13240;SDS011;6687;47.790;7.322;2023-03-19T14:40:15;0.32;;;0.30;;
13240;SDS011;6687;47.790;7.322;2023-03-19T14:42:48;0.38;;;0.38;;
13240;SDS011;6687;47.790;7.322;2023-03-19T14:45:39;0.90;;;0.30;;
13240;SDS011;6687;47.790;7.322;2023-03-19T14:51:29;0.47;;;0.47;;
13240;SDS011;6687;47.790;7.322;2023-03-19T14:54:18;0.60;;;0.45;;
13240;SDS011;6687;47.790;7.322;2023-03-19T14:56:51;0.40;;;0.40;;
13240;SDS011;6687;47.790;7.322;2023-03-19T14:59:20;0.38;;;0.38;;
13240;SDS011;6687;47.790;7.322;2023-03-19T15:01:48;0.85;;;0.30;;
13240;SDS011;6687;47.790;7.322;2023-03-19T15:04:20;0.10;;;0.10;;
13240;SDS011;6687;47.790;7.322;2023-03-19T15:06:50;0.40;;;0.40;;
13240;SDS011;6687;47.790;7.322;2023-03-19T15:09:20;0.32;;;0.32;;
13240;SDS011;6687;47.790;7.322;2023-03-19T15:15:06;0.40;;;0.40;;
13240;SDS011;6687;47.790;7.322;2023-03-19T15:17:49;0.60;;;0.50;;
13240;SDS011;6687;47.790;7.322;2023-03-19T15:20:23;0.30;;;0.30;;
13240;SDS011;6687;47.790;7.322;2023-03-19T15:23:10;0.30;;;0.30;;
13240;SDS011;6687;47.790;7.322;2023-03-19T15:25:44;0.40;;;0.40;;
13240;SDS011;6687;47.790;7.322;2023-03-19T15:28:13;0.10;;;0.10;;
13240;SDS011;6687;47.790;7.322;2023-03-19T15:30:41;0.47;;;0.47;;
13240;SDS011;6687;47.790;7.322;2023-03-19T15:33:30;0.60;;;0.50;;
13240;SDS011;6687;47.790;7.322;2023-03-19T15:36:01;0.30;;;0.30;;
13240;SDS011;6687;47.790;7.322;2023-03-19T15:38:33;0.35;;;0.35;;
13240;SDS011;6687;47.790;7.322;2023-03-19T15:41:04;0.38;;;0.38;;
13240;SDS011;6687;47.790;7.322;2023-03-19T15:43:32;0.40;;;0.40;;
13240;SDS011;6687;47.790;7.322;2023-03-19T15:46:01;0.30;;;0.30;;
13240;SDS011;6687;47.790;7.322;2023-03-19T15:48:32;0.32;;;0.32;;
13240;SDS011;6687;47.790;7.322;2023-03-19T15:51:04;0.40;;;0.40;;
13240;SDS011;6687;47.790;7.322;2023-03-19T15:53:33;0.65;;;0.65;;
13240;SDS011;6687;47.790;7.322;2023-03-19T15:56:02;0.75;;;0.30;;
13240;SDS011;6687;47.790;7.322;2023-03-19T15:58:30;0.70;;;0.40;;
13240;SDS011;6687;47.790;7.322;2023-03-19T16:01:04;0.30;;;0.30;;
13240;SDS011;6687;47.790;7.322;2023-03-19T16:03:35;0.40;;;0.40;;
13240;SDS011;6687;47.790;7.322;2023-03-19T16:06:05;0.80;;;0.22;;
13240;SDS011;6687;47.790;7.322;2023-03-19T16:08:44;0.17;;;0.17;;
13240;SDS011;6687;47.790;7.322;2023-03-19T16:11:13;0.30;;;0.30;;
13240;SDS011;6687;47.790;7.322;2023-03-19T16:13:43;0.30;;;0.30;;
13240;SDS011;6687;47.790;7.322;2023-03-19T16:16:19;0.70;;;0.70;;
13240;SDS011;6687;47.790;7.322;2023-03-19T16:18:49;0.55;;;0.55;;
13240;SDS011;6687;47.790;7.322;2023-03-19T16:21:19;1.30;;;0.77;;
13240;SDS011;6687;47.790;7.322;2023-03-19T16:23:49;0.57;;;0.57;;
13240;SDS011;6687;47.790;7.322;2023-03-19T16:26:21;0.50;;;0.50;;
13240;SDS011;6687;47.790;7.322;2023-03-19T16:28:57;0.50;;;0.50;;
13240;SDS011;6687;47.790;7.322;2023-03-19T16:31:28;0.32;;;0.32;;
13240;SDS011;6687;47.790;7.322;2023-03-19T16:33:58;0.43;;;0.40;;
13240;SDS011;6687;47.790;7.322;2023-03-19T16:36:30;0.40;;;0.40;;
13240;SDS011;6687;47.790;7.322;2023-03-19T16:39:12;1.20;;;0.60;;
13240;SDS011;6687;47.790;7.322;2023-03-19T16:41:50;0.63;;;0.63;;
13240;SDS011;6687;47.790;7.322;2023-03-19T16:44:39;0.85;;;0.85;;
13240;SDS011;6687;47.790;7.322;2023-03-19T16:47:08;0.60;;;0.60;;
13240;SDS011;6687;47.790;7.322;2023-03-19T16:49:36;0.73;;;0.73;;
13240;SDS011;6687;47.790;7.322;2023-03-19T16:52:04;0.55;;;0.55;;
13240;SDS011;6687;47.790;7.322;2023-03-19T16:54:38;0.43;;;0.43;;
13240;SDS011;6687;47.790;7.322;2023-03-19T16:57:05;0.50;;;0.50;;
13240;SDS011;6687;47.790;7.322;2023-03-19T16:59:33;0.52;;;0.50;;
13240;SDS011;6687;47.790;7.322;2023-03-19T17:02:00;0.43;;;0.43;;
13240;SDS011;6687;47.790;7.322;2023-03-19T17:04:27;0.70;;;0.70;;
13240;SDS011;6687;47.790;7.322;2023-03-19T17:06:53;0.75;;;0.75;;
13240;SDS011;6687;47.790;7.322;2023-03-19T17:09:22;0.70;;;0.70;;
13240;SDS011;6687;47.790;7.322;2023-03-19T17:11:50;0.80;;;0.80;;
13240;SDS011;6687;47.790;7.322;2023-03-19T17:14:18;1.08;;;0.70;;
13240;SDS011;6687;47.790;7.322;2023-03-19T17:16:47;0.73;;;0.73;;
13240;SDS011;6687;47.790;7.322;2023-03-19T17:19:17;0.73;;;0.73;;
13240;SDS011;6687;47.790;7.322;2023-03-19T17:21:45;0.52;;;0.50;;
13240;SDS011;6687;47.790;7.322;2023-03-19T17:24:21;0.40;;;0.38;;
13240;SDS011;6687;47.790;7.322;2023-03-19T17:26:50;0.47;;;0.20;;
13240;SDS011;6687;47.790;7.322;2023-03-19T17:29:18;0.00;;;0.00;;
13240;SDS011;6687;47.790;7.322;2023-03-19T17:31:47;0.00;;;0.00;;
13240;SDS011;6687;47.790;7.322;2023-03-19T17:34:15;0.80;;;0.40;;
13240;SDS011;6687;47.790;7.322;2023-03-19T17:36:46;0.03;;;0.03;;
13240;SDS011;6687;47.790;7.322;2023-03-19T17:39:15;0.28;;;0.28;;
13240;SDS011;6687;47.790;7.322;2023-03-19T17:41:44;0.20;;;0.20;;
13240;SDS011;6687;47.790;7.322;2023-03-19T17:44:10;0.20;;;0.13;;
13240;SDS011;6687;47.790;7.322;2023-03-19T17:46:39;0.25;;;0.25;;
13240;SDS011;6687;47.790;7.322;2023-03-19T17:49:10;0.10;;;0.10;;
13240;SDS011;6687;47.790;7.322;2023-03-19T17:51:42;0.45;;;0.30;;
13240;SDS011;6687;47.790;7.322;2023-03-19T17:54:10;0.30;;;0.30;;
13240;SDS011;6687;47.790;7.322;2023-03-19T17:56:37;2.88;;;0.50;;
13240;SDS011;6687;47.790;7.322;2023-03-19T17:59:07;0.47;;;0.25;;
13240;SDS011;6687;47.790;7.322;2023-03-19T18:01:34;0.40;;;0.40;;
13240;SDS011;6687;47.790;7.322;2023-03-19T18:04:02;0.60;;;0.60;;
13240;SDS011;6687;47.790;7.322;2023-03-19T18:06:30;0.40;;;0.40;;
13240;SDS011;6687;47.790;7.322;2023-03-19T18:08:59;0.75;;;0.68;;
13240;SDS011;6687;47.790;7.322;2023-03-19T18:11:26;1.17;;;0.80;;
13240;SDS011;6687;47.790;7.322;2023-03-19T18:13:53;1.20;;;0.47;;
13240;SDS011;6687;47.790;7.322;2023-03-19T18:16:22;0.73;;;0.73;;
13240;SDS011;6687;47.790;7.322;2023-03-19T18:18:52;0.85;;;0.60;;
13240;SDS011;6687;47.790;7.322;2023-03-19T18:21:19;0.50;;;0.50;;
13240;SDS011;6687;47.790;7.322;2023-03-19T18:23:46;0.40;;;0.40;;
13240;SDS011;6687;47.790;7.322;2023-03-19T18:26:13;0.82;;;0.80;;
13240;SDS011;6687;47.790;7.322;2023-03-19T18:28:41;0.77;;;0.43;;
13240;SDS011;6687;47.790;7.322;2023-03-19T18:31:10;0.30;;;0.30;;
13240;SDS011;6687;47.790;7.322;2023-03-19T18:33:41;0.60;;;0.60;;
13240;SDS011;6687;47.790;7.322;2023-03-19T18:36:12;0.32;;;0.32;;
13240;SDS011;6687;47.790;7.322;2023-03-19T18:38:42;0.98;;;0.60;;
13240;SDS011;6687;47.790;7.322;2023-03-19T18:41:10;0.30;;;0.30;;
13240;SDS011;6687;47.790;7.322;2023-03-19T18:43:41;0.40;;;0.35;;
13240;SDS011;6687;47.790;7.322;2023-03-19T18:46:08;0.60;;;0.60;;
13240;SDS011;6687;47.790;7.322;2023-03-19T18:48:38;0.50;;;0.50;;
13240;SDS011;6687;47.790;7.322;2023-03-19T18:51:08;0.63;;;0.40;;
13240;SDS011;6687;47.790;7.322;2023-03-19T18:53:35;0.22;;;0.22;;
13240;SDS011;6687;47.790;7.322;2023-03-19T18:56:02;1.23;;;0.30;;
13240;SDS011;6687;47.790;7.322;2023-03-19T18:58:31;0.40;;;0.40;;
13240;SDS011;6687;47.790;7.322;2023-03-19T19:00:59;0.30;;;0.30;;
13240;SDS011;6687;47.790;7.322;2023-03-19T19:03:28;0.40;;;0.40;;
13240;SDS011;6687;47.790;7.322;2023-03-19T19:05:57;0.25;;;0.25;;
13240;SDS011;6687;47.790;7.322;2023-03-19T19:08:25;0.90;;;0.40;;
13240;SDS011;6687;47.790;7.322;2023-03-19T19:10:55;0.40;;;0.40;;
13240;SDS011;6687;47.790;7.322;2023-03-19T19:13:26;1.58;;;0.88;;
13240;SDS011;6687;47.790;7.322;2023-03-19T19:15:55;0.43;;;0.43;;
13240;SDS011;6687;47.790;7.322;2023-03-19T19:18:22;0.60;;;0.60;;
13240;SDS011;6687;47.790;7.322;2023-03-19T19:20:53;0.52;;;0.30;;
13240;SDS011;6687;47.790;7.322;2023-03-19T19:23:21;0.47;;;0.47;;
13240;SDS011;6687;47.790;7.322;2023-03-19T19:25:52;0.40;;;0.40;;
13240;SDS011;6687;47.790;7.322;2023-03-19T19:28:20;1.33;;;0.35;;
13240;SDS011;6687;47.790;7.322;2023-03-19T19:30:54;0.68;;;0.68;;
13240;SDS011;6687;47.790;7.322;2023-03-19T19:33:23;1.70;;;1.10;;
13240;SDS011;6687;47.790;7.322;2023-03-19T19:35:51;1.70;;;1.15;;
13240;SDS011;6687;47.790;7.322;2023-03-19T19:38:18;1.23;;;1.13;;
13240;SDS011;6687;47.790;7.322;2023-03-19T19:40:46;1.58;;;0.77;;
13240;SDS011;6687;47.790;7.322;2023-03-19T19:43:16;0.77;;;0.77;;
13240;SDS011;6687;47.790;7.322;2023-03-19T19:45:45;0.98;;;0.75;;
13240;SDS011;6687;47.790;7.322;2023-03-19T19:48:16;0.80;;;0.80;;
13240;SDS011;6687;47.790;7.322;2023-03-19T19:50:45;0.68;;;0.68;;
13240;SDS011;6687;47.790;7.322;2023-03-19T19:53:13;0.35;;;0.35;;
13240;SDS011;6687;47.790;7.322;2023-03-19T19:55:40;0.30;;;0.30;;
13240;SDS011;6687;47.790;7.322;2023-03-19T19:58:11;0.32;;;0.32;;
13240;SDS011;6687;47.790;7.322;2023-03-19T20:00:44;0.95;;;0.80;;
13240;SDS011;6687;47.790;7.322;2023-03-19T20:03:17;0.70;;;0.70;;
13240;SDS011;6687;47.790;7.322;2023-03-19T20:05:45;1.08;;;1.08;;
13240;SDS011;6687;47.790;7.322;2023-03-19T20:08:12;1.40;;;1.30;;
13240;SDS011;6687;47.790;7.322;2023-03-19T20:10:38;0.85;;;0.52;;
13240;SDS011;6687;47.790;7.322;2023-03-19T20:13:05;1.17;;;1.00;;
13240;SDS011;6687;47.790;7.322;2023-03-19T20:15:40;0.85;;;0.70;;
13240;SDS011;6687;47.790;7.322;2023-03-19T20:18:09;1.38;;;1.15;;
13240;SDS011;6687;47.790;7.322;2023-03-19T20:20:42;0.90;;;0.80;;
13240;SDS011;6687;47.790;7.322;2023-03-19T20:23:09;1.23;;;0.85;;
13240;SDS011;6687;47.790;7.322;2023-03-19T20:25:36;0.63;;;0.63;;
13240;SDS011;6687;47.790;7.322;2023-03-19T20:28:03;1.45;;;0.95;;
13240;SDS011;6687;47.790;7.322;2023-03-19T20:30:33;0.70;;;0.70;;
13240;SDS011;6687;47.790;7.322;2023-03-19T20:33:02;0.70;;;0.70;;
13240;SDS011;6687;47.790;7.322;2023-03-19T20:35:30;0.43;;;0.43;;
13240;SDS011;6687;47.790;7.322;2023-03-19T20:37:58;1.13;;;0.70;;
13240;SDS011;6687;47.790;7.322;2023-03-19T20:40:27;0.82;;;0.68;;
13240;SDS011;6687;47.790;7.322;2023-03-19T20:42:56;0.52;;;0.43;;
13240;SDS011;6687;47.790;7.322;2023-03-19T20:45:24;0.60;;;0.60;;
13240;SDS011;6687;47.790;7.322;2023-03-19T20:47:56;0.25;;;0.25;;
13240;SDS011;6687;47.790;7.322;2023-03-19T20:50:24;0.43;;;0.38;;
13240;SDS011;6687;47.790;7.322;2023-03-19T20:52:53;0.50;;;0.50;;
13240;SDS011;6687;47.790;7.322;2023-03-19T20:55:21;0.73;;;0.47;;
13240;SDS011;6687;47.790;7.322;2023-03-19T20:57:51;0.43;;;0.43;;
13240;SDS011;6687;47.790;7.322;2023-03-19T21:00:22;0.30;;;0.30;;
13240;SDS011;6687;47.790;7.322;2023-03-19T21:02:51;0.30;;;0.30;;
13240;SDS011;6687;47.790;7.322;2023-03-19T21:05:19;0.40;;;0.40;;
13240;SDS011;6687;47.790;7.322;2023-03-19T21:07:48;0.73;;;0.73;;
13240;SDS011;6687;47.790;7.322;2023-03-19T21:10:19;1.75;;;0.73;;
13240;SDS011;6687;47.790;7.322;2023-03-19T21:12:53;0.68;;;0.68;;
13240;SDS011;6687;47.790;7.322;2023-03-19T21:15:19;0.43;;;0.43;;
13240;SDS011;6687;47.790;7.322;2023-03-19T21:17:46;0.77;;;0.50;;
13240;SDS011;6687;47.790;7.322;2023-03-19T21:20:17;0.50;;;0.50;;
13240;SDS011;6687;47.790;7.322;2023-03-19T21:22:47;0.50;;;0.50;;
13240;SDS011;6687;47.790;7.322;2023-03-19T21:25:20;0.50;;;0.50;;
13240;SDS011;6687;47.790;7.322;2023-03-19T21:27:50;0.80;;;0.80;;
13240;SDS011;6687;47.790;7.322;2023-03-19T21:30:19;1.25;;;1.00;;
13240;SDS011;6687;47.790;7.322;2023-03-19T21:32:47;0.77;;;0.63;;
13240;SDS011;6687;47.790;7.322;2023-03-19T21:35:16;2.28;;;1.60;;
13240;SDS011;6687;47.790;7.322;2023-03-19T21:37:44;1.17;;;0.90;;
13240;SDS011;6687;47.790;7.322;2023-03-19T21:40:15;2.72;;;1.38;;
13240;SDS011;6687;47.790;7.322;2023-03-19T21:42:44;1.75;;;1.60;;
13240;SDS011;6687;47.790;7.322;2023-03-19T21:45:16;1.70;;;1.60;;
13240;SDS011;6687;47.790;7.322;2023-03-19T21:47:48;1.30;;;1.30;;
13240;SDS011;6687;47.790;7.322;2023-03-19T21:50:15;1.38;;;1.27;;